Batchelor, Louisiana
Current Conditions -  °F | °C
As of 9:35 AM on Friday 28 Nov 2014 (Local Time) from KHZR Reporting Station
Clear Clear  
Wind Chill: 43°   Ceiling: Unl
Heat Index: 47°   Visibility: 10mi
Dew Point: 32°   Wind: 9mph
Humidity: 56%   Direction: 110°ESE
Pressure: 30.44"   Gusts: NA
Location:  30.84°N, 91.66°W
Report Text: KHZR 281535Z AUTO 11008KT 10SM CLR 09/00 A3044 RMK AO2 T00850002
Loading
Personal Weather Stations






























Interactive Weather Map New forecast layout! Learn more

10-Day Weather Forecast

Advertisements
Track Severe Weather on mobile